createdAt,value
2023-04-27T00:03:00.176Z,21.80
2023-04-27T00:08:02.088Z,21.86
2023-04-27T00:13:03.592Z,21.84
2023-04-27T00:18:05.082Z,21.96
2023-04-27T00:23:06.821Z,21.92
2023-04-27T00:28:08.207Z,21.95
2023-04-27T00:33:09.612Z,22.00
2023-04-27T00:38:12.084Z,21.96
2023-04-27T00:43:13.452Z,21.91
2023-04-27T00:48:14.857Z,21.88
2023-04-27T00:53:16.329Z,21.78
2023-04-27T00:58:17.744Z,21.85
2023-04-27T01:03:19.314Z,21.90
2023-04-27T01:08:20.854Z,21.74
2023-04-27T01:13:22.364Z,21.85
2023-04-27T01:18:24.274Z,21.66
2023-04-27T01:23:26.096Z,21.63
2023-04-27T01:28:27.473Z,21.75
2023-04-27T01:33:28.864Z,21.94
2023-04-27T01:38:30.671Z,21.97
2023-04-27T01:43:32.086Z,21.99
2023-04-27T01:48:34.098Z,21.98
2023-04-27T01:53:35.554Z,22.20
2023-04-27T01:58:36.954Z,22.08
2023-04-27T02:03:38.458Z,22.09
2023-04-27T02:08:40.008Z,22.21
2023-04-27T02:13:41.386Z,22.15
2023-04-27T02:18:42.767Z,22.15
2023-04-27T02:23:44.156Z,22.29
2023-04-27T02:28:46.307Z,22.14
2023-04-27T02:33:48.121Z,22.22
2023-04-27T02:38:49.590Z,22.31
2023-04-27T02:43:51.401Z,22.15
2023-04-27T02:48:52.835Z,22.25
2023-04-27T02:53:54.394Z,22.25
2023-04-27T02:58:56.216Z,22.21
2023-04-27T03:03:58.016Z,22.39
2023-04-27T03:08:59.423Z,22.17
2023-04-27T03:14:01.271Z,22.21
2023-04-27T03:19:03.637Z,22.17
2023-04-27T03:24:05.616Z,22.10
2023-04-27T03:29:06.989Z,22.31
2023-04-27T03:34:08.366Z,22.10
2023-04-27T03:39:09.762Z,21.99
2023-04-27T03:44:11.154Z,22.07
2023-04-27T03:49:12.916Z,22.03
2023-04-27T03:54:14.962Z,21.92
2023-04-27T03:59:16.549Z,21.94
2023-04-27T04:04:18.364Z,21.92
2023-04-27T04:09:21.418Z,21.93
2023-04-27T04:14:24.045Z,21.95
2023-04-27T04:19:25.706Z,21.91
2023-04-27T04:24:27.086Z,21.94
2023-04-27T04:29:28.627Z,21.87
2023-04-27T04:34:30.039Z,21.92
2023-04-27T04:39:31.983Z,21.78
2023-04-27T04:44:33.376Z,21.77
2023-04-27T04:49:34.750Z,21.87
2023-04-27T04:54:36.477Z,21.92
2023-04-27T04:59:37.857Z,21.95
2023-04-27T05:04:39.338Z,21.94
2023-04-27T05:09:41.042Z,21.93
2023-04-27T05:14:43.552Z,21.87
2023-04-27T05:19:45.010Z,21.79
2023-04-27T05:24:46.428Z,21.81
2023-04-27T05:29:47.802Z,21.89
2023-04-27T05:34:49.679Z,21.99
2023-04-27T05:39:51.241Z,21.97
2023-04-27T05:44:52.620Z,21.92
2023-04-27T05:49:54.018Z,21.81
2023-04-27T05:54:55.469Z,21.92
2023-04-27T05:59:56.843Z,21.85
2023-04-27T06:04:58.346Z,22.10
2023-04-27T06:09:59.758Z,22.13
2023-04-27T06:15:03.675Z,22.13
2023-04-27T06:20:09.142Z,22.19
2023-04-27T06:25:10.534Z,22.32
2023-04-27T06:30:12.350Z,22.90
2023-04-27T06:35:13.768Z,23.12
2023-04-27T06:40:15.327Z,22.98
2023-04-27T06:45:16.709Z,23.15
2023-04-27T06:50:20.650Z,23.05
2023-04-27T06:55:22.112Z,23.17
2023-04-27T07:00:23.479Z,22.83
2023-04-27T07:05:24.875Z,22.95
2023-04-27T07:10:26.721Z,22.69
2023-04-27T07:15:28.126Z,22.86
2023-04-27T07:20:29.795Z,22.87
2023-04-27T07:25:31.458Z,22.78
2023-04-27T07:30:36.115Z,22.60
2023-04-27T07:35:37.498Z,22.83
2023-04-27T07:40:39.740Z,22.83
2023-04-27T07:45:42.293Z,22.64
2023-04-27T07:50:43.706Z,22.69
2023-04-27T07:55:45.131Z,22.53
2023-04-27T08:00:46.979Z,22.63
2023-04-27T08:05:48.827Z,22.41
2023-04-27T08:10:50.556Z,22.04
2023-04-27T08:15:54.141Z,21.82
2023-04-27T08:20:55.628Z,21.71
2023-04-27T08:25:57.391Z,21.80
2023-04-27T08:30:58.870Z,21.56
2023-04-27T08:36:00.319Z,21.68
2023-04-27T08:41:14.215Z,21.48
2023-04-27T08:46:23.091Z,21.67
2023-04-27T08:51:27.326Z,21.47
2023-04-27T08:56:29.292Z,22.17
2023-04-27T09:01:32.081Z,21.93
2023-04-27T09:06:34.172Z,21.80
2023-04-27T09:11:36.706Z,21.30
2023-04-27T09:16:38.158Z,20.83
2023-04-27T09:21:39.576Z,20.52
2023-04-27T09:26:42.895Z,20.21
2023-04-27T09:31:44.337Z,19.88
2023-04-27T09:36:45.722Z,20.03
2023-04-27T09:41:47.107Z,20.02
2023-04-27T09:46:48.780Z,19.90
2023-04-27T09:51:50.170Z,19.77
2023-04-27T09:57:28.662Z,19.80
2023-04-27T10:02:30.264Z,19.26
2023-04-27T10:07:31.866Z,19.14
2023-04-27T10:12:36.460Z,19.26
2023-04-27T10:17:38.010Z,19.50
2023-04-27T10:22:43.146Z,19.31
2023-04-27T10:27:54.725Z,19.05
2023-04-27T10:32:57.239Z,19.04
2023-04-27T10:38:09.235Z,19.16
2023-04-27T10:43:12.130Z,18.71
2023-04-27T10:48:15.464Z,18.91
2023-04-27T10:53:17.398Z,19.22
2023-04-27T10:58:23.890Z,19.60
2023-04-27T11:03:25.860Z,19.15
2023-04-27T11:08:27.306Z,19.82
2023-04-27T11:13:28.893Z,19.51
2023-04-27T11:18:31.448Z,19.34
2023-04-27T11:23:36.982Z,19.37
2023-04-27T11:28:38.560Z,19.56
2023-04-27T11:33:47.391Z,19.22
2023-04-27T11:38:48.844Z,19.17
2023-04-27T11:43:51.103Z,19.09
2023-04-27T11:48:52.488Z,19.03
2023-04-27T11:53:53.916Z,19.03
2023-04-27T11:58:55.329Z,18.80
2023-04-27T12:03:57.624Z,19.03
2023-04-27T12:09:01.134Z,18.97
2023-04-27T12:14:02.560Z,18.87
2023-04-27T12:19:04.239Z,18.72
2023-04-27T12:24:05.987Z,18.94
2023-04-27T12:29:07.462Z,19.10
2023-04-27T12:34:08.876Z,19.50
2023-04-27T12:39:15.052Z,19.60
2023-04-27T12:44:17.766Z,19.89
2023-04-27T12:49:19.188Z,19.68
2023-04-27T12:54:20.704Z,20.28
2023-04-27T12:59:22.119Z,19.99
2023-04-27T13:04:24.085Z,19.93
2023-04-27T13:09:25.578Z,19.97
2023-04-27T13:14:28.432Z,19.88
2023-04-27T13:19:29.850Z,20.09
2023-04-27T13:24:31.268Z,20.04
2023-04-27T13:29:32.776Z,19.85
2023-04-27T13:34:34.338Z,19.69
2023-04-27T13:39:37.417Z,19.75
2023-04-27T13:44:38.961Z,19.83
2023-04-27T13:49:40.332Z,20.08
2023-04-27T13:54:41.896Z,20.18
2023-04-27T13:59:43.364Z,20.21
2023-04-27T14:04:44.835Z,20.43
2023-04-27T14:09:46.330Z,20.31
2023-04-27T14:14:47.716Z,20.46
2023-04-27T14:19:49.109Z,20.46
2023-04-27T14:24:50.524Z,20.33
2023-04-27T14:29:52.213Z,20.44
2023-04-27T14:34:53.833Z,20.26
2023-04-27T14:39:55.235Z,20.27
2023-04-27T14:44:56.640Z,20.50
2023-04-27T14:49:58.011Z,20.54
2023-04-27T14:55:00.188Z,20.30
2023-04-27T15:00:01.764Z,20.12
2023-04-27T15:05:03.283Z,20.06
2023-04-27T15:10:05.761Z,19.81
2023-04-27T15:15:10.328Z,19.73
2023-04-27T15:20:13.875Z,19.66
2023-04-27T15:25:15.274Z,19.45
2023-04-27T15:30:16.650Z,19.49
2023-04-27T15:35:18.034Z,19.38
2023-04-27T15:40:19.440Z,19.34
2023-04-27T15:45:20.912Z,19.29
2023-04-27T15:50:22.361Z,19.33
2023-04-27T15:55:23.772Z,19.26
2023-04-27T16:00:25.292Z,19.12
2023-04-27T16:05:26.743Z,19.09
2023-04-27T16:10:28.182Z,19.20
2023-04-27T16:15:29.584Z,19.37
2023-04-27T16:20:31.697Z,19.19
2023-04-27T16:25:33.722Z,19.47
2023-04-27T16:30:35.118Z,19.46
2023-04-27T16:35:36.538Z,19.35
2023-04-27T16:40:37.947Z,19.22
2023-04-27T16:45:41.508Z,19.10
2023-04-27T16:50:42.919Z,19.43
2023-04-27T16:55:44.362Z,19.25
2023-04-27T17:00:45.856Z,19.41
2023-04-27T17:05:47.628Z,19.40
2023-04-27T17:10:49.012Z,19.23
2023-04-27T17:15:51.613Z,19.21
2023-04-27T17:20:53.120Z,19.33
2023-04-27T17:25:55.755Z,19.26
2023-04-27T17:30:57.595Z,19.40
2023-04-27T17:35:59.012Z,19.42
2023-04-27T17:41:00.511Z,19.36
2023-04-27T17:46:01.956Z,19.29
2023-04-27T17:51:03.365Z,19.23
2023-04-27T17:56:05.175Z,19.69
2023-04-27T18:01:08.943Z,19.53
2023-04-27T18:06:11.494Z,19.47
2023-04-27T18:11:12.876Z,19.78
2023-04-27T18:16:14.308Z,19.87
2023-04-27T18:21:15.825Z,19.86
2023-04-27T18:26:17.195Z,19.97
2023-04-27T18:31:18.901Z,19.88
2023-04-27T18:36:20.789Z,19.93
2023-04-27T18:41:22.231Z,20.09
2023-04-27T18:46:23.765Z,20.11
2023-04-27T18:51:26.199Z,20.19
2023-04-27T18:56:27.650Z,20.49
2023-04-27T19:01:31.869Z,20.32
2023-04-27T19:06:33.296Z,20.36
2023-04-27T19:11:35.006Z,20.74
2023-04-27T19:16:37.707Z,20.57
2023-04-27T19:21:40.077Z,20.93
2023-04-27T19:26:41.546Z,20.84
2023-04-27T19:31:43.481Z,21.22
2023-04-27T19:36:45.239Z,21.18
2023-04-27T19:41:46.641Z,21.43
2023-04-27T19:46:48.150Z,21.49
2023-04-27T19:51:49.626Z,21.50
2023-04-27T19:56:51.032Z,21.71
2023-04-27T20:01:52.497Z,21.58
2023-04-27T20:06:53.916Z,21.80
2023-04-27T20:11:55.487Z,21.82
2023-04-27T20:16:56.905Z,22.05
2023-04-27T20:21:58.916Z,22.10
2023-04-27T20:27:04.127Z,21.91
2023-04-27T20:32:05.751Z,22.34
2023-04-27T20:37:07.388Z,22.33
2023-04-27T20:42:08.943Z,22.32
2023-04-27T20:47:10.314Z,22.26
2023-04-27T20:52:11.699Z,22.42
2023-04-27T20:57:13.759Z,22.39
2023-04-27T21:02:15.853Z,22.47
2023-04-27T21:07:17.395Z,22.58
2023-04-27T21:12:18.798Z,22.63
2023-04-27T21:17:20.187Z,22.67
2023-04-27T21:22:21.562Z,22.79
2023-04-27T21:27:23.033Z,22.76
2023-04-27T21:32:24.424Z,22.81
2023-04-27T21:37:25.811Z,22.73
2023-04-27T21:42:27.217Z,22.90
2023-04-27T21:47:28.636Z,22.95
2023-04-27T21:52:30.026Z,23.12
2023-04-27T21:57:32.311Z,23.12
2023-04-27T22:02:33.925Z,23.07
2023-04-27T22:07:36.054Z,23.24
2023-04-27T22:12:37.431Z,23.14
2023-04-27T22:17:39.569Z,23.25
2023-04-27T22:22:41.069Z,23.29
2023-04-27T22:27:45.471Z,23.36
2023-04-27T22:32:47.186Z,23.39
2023-04-27T22:37:49.397Z,23.33
2023-04-27T22:42:51.239Z,23.30
2023-04-27T22:47:52.699Z,23.37
2023-04-27T22:52:54.188Z,23.30
2023-04-27T22:57:55.576Z,23.27
2023-04-27T23:02:57.195Z,23.24
2023-04-27T23:07:59.726Z,23.14
2023-04-27T23:13:04.059Z,23.31
2023-04-27T23:18:06.044Z,23.38
2023-04-27T23:23:07.507Z,23.37
2023-04-27T23:28:08.891Z,23.45
2023-04-27T23:33:10.282Z,23.45
2023-04-27T23:38:11.935Z,23.51
2023-04-27T23:43:13.326Z,23.47
2023-04-27T23:48:14.727Z,23.48
2023-04-27T23:53:16.410Z,23.66
2023-04-27T23:58:18.560Z,23.45
